sensor_id;sensor_type;location;lat;lon;timestamp;pressure;altitude;pressure_sealevel;temperature;humidity
45864;BME280;31579;52.354;16.974;2023-05-23T00:00:14;-51.0;;;-146.1;100.0
45864;BME280;31579;52.354;16.974;2023-05-23T00:01:18;-49.5;;;-146.1;100.0
45864;BME280;31579;52.354;16.974;2023-05-23T00:02:22;-48.3;;;-146.1;100.0
45864;BME280;31579;52.354;16.974;2023-05-23T00:03:26;-47.8;;;-146.1;100.0
45864;BME280;31579;52.354;16.974;2023-05-23T00:04:30;-47.6;;;-146.1;100.0
45864;BME280;31579;52.354;16.974;2023-05-23T00:05:34;-47.1;;;-146.1;100.0
45864;BME280;31579;52.354;16.974;2023-05-23T00:06:38;-48.5;;;-146.1;100.0
45864;BME280;31579;52.354;16.974;2023-05-23T00:07:42;-50.9;;;-146.1;100.0
45864;BME280;31579;52.354;16.974;2023-05-23T00:08:46;-52.1;;;-146.1;100.0
45864;BME280;31579;52.354;16.974;2023-05-23T00:09:50;-53.4;;;-146.1;100.0
45864;BME280;31579;52.354;16.974;2023-05-23T00:10:54;-54.3;;;-146.1;100.0
45864;BME280;31579;52.354;16.974;2023-05-23T00:11:58;-54.4;;;-146.1;100.0
45864;BME280;31579;52.354;16.974;2023-05-23T00:13:02;-55.2;;;-146.1;100.0
45864;BME280;31579;52.354;16.974;2023-05-23T00:14:06;-56.7;;;-146.1;100.0
45864;BME280;31579;52.354;16.974;2023-05-23T00:15:18;-51.2;;;-146.1;100.0
45864;BME280;31579;52.354;16.974;2023-05-23T00:16:22;-55.9;;;-146.1;100.0
45864;BME280;31579;52.354;16.974;2023-05-23T00:17:27;-55.5;;;-146.1;100.0
45864;BME280;31579;52.354;16.974;2023-05-23T00:18:31;-56.0;;;-146.1;100.0
45864;BME280;31579;52.354;16.974;2023-05-23T00:19:35;-58.7;;;-146.1;100.0
45864;BME280;31579;52.354;16.974;2023-05-23T00:20:40;-60.6;;;-146.1;100.0
45864;BME280;31579;52.354;16.974;2023-05-23T00:21:46;-60.3;;;-146.1;100.0
45864;BME280;31579;52.354;16.974;2023-05-23T00:22:48;-60.9;;;-146.1;100.0
45864;BME280;31579;52.354;16.974;2023-05-23T00:23:53;-60.6;;;-146.1;100.0
45864;BME280;31579;52.354;16.974;2023-05-23T00:25:11;-58.5;;;-146.1;100.0
45864;BME280;31579;52.354;16.974;2023-05-23T00:26:15;-59.1;;;-146.1;100.0
45864;BME280;31579;52.354;16.974;2023-05-23T00:27:19;-60.3;;;-146.1;100.0
45864;BME280;31579;52.354;16.974;2023-05-23T00:28:23;-62.1;;;-146.1;100.0
45864;BME280;31579;52.354;16.974;2023-05-23T00:29:27;-63.0;;;-146.1;100.0
45864;BME280;31579;52.354;16.974;2023-05-23T00:30:32;-62.1;;;-146.1;100.0
45864;BME280;31579;52.354;16.974;2023-05-23T00:31:33;-71.0;;;-146.1;100.0
45864;BME280;31579;52.354;16.974;2023-05-23T00:32:38;-61.0;;;-146.1;100.0
45864;BME280;31579;52.354;16.974;2023-05-23T00:33:42;-62.7;;;-146.1;100.0
45864;BME280;31579;52.354;16.974;2023-05-23T00:34:46;-64.5;;;-146.1;100.0
45864;BME280;31579;52.354;16.974;2023-05-23T00:35:50;-65.2;;;-146.1;100.0
45864;BME280;31579;52.354;16.974;2023-05-23T00:36:54;-66.4;;;-146.1;100.0
45864;BME280;31579;52.354;16.974;2023-05-23T00:37:58;-66.1;;;-146.1;100.0
45864;BME280;31579;52.354;16.974;2023-05-23T00:39:00;-75.2;;;-146.1;100.0
45864;BME280;31579;52.354;16.974;2023-05-23T00:40:05;-64.6;;;-146.1;100.0
45864;BME280;31579;52.354;16.974;2023-05-23T00:41:09;-64.4;;;-146.1;100.0
45864;BME280;31579;52.354;16.974;2023-05-23T00:42:13;-64.4;;;-146.1;100.0
45864;BME280;31579;52.354;16.974;2023-05-23T00:43:17;-63.7;;;-146.1;100.0
45864;BME280;31579;52.354;16.974;2023-05-23T00:44:21;-64.9;;;-146.1;100.0
45864;BME280;31579;52.354;16.974;2023-05-23T00:45:25;-67.1;;;-146.1;100.0
45864;BME280;31579;52.354;16.974;2023-05-23T00:46:29;-69.4;;;-146.1;100.0
45864;BME280;31579;52.354;16.974;2023-05-23T00:47:33;-71.6;;;-146.1;100.0
45864;BME280;31579;52.354;16.974;2023-05-23T00:48:37;-72.4;;;-146.1;100.0
45864;BME280;31579;52.354;16.974;2023-05-23T00:49:41;-73.4;;;-146.1;100.0
45864;BME280;31579;52.354;16.974;2023-05-23T00:50:46;-74.3;;;-146.1;100.0
45864;BME280;31579;52.354;16.974;2023-05-23T00:51:50;-74.8;;;-146.1;100.0
45864;BME280;31579;52.354;16.974;2023-05-23T00:52:54;-75.3;;;-146.1;100.0
45864;BME280;31579;52.354;16.974;2023-05-23T00:53:58;-77.0;;;-146.1;100.0
45864;BME280;31579;52.354;16.974;2023-05-23T00:55:00;-86.2;;;-146.1;100.0
45864;BME280;31579;52.354;16.974;2023-05-23T00:56:03;-83.7;;;-146.1;100.0
45864;BME280;31579;52.354;16.974;2023-05-23T00:57:07;-80.5;;;-146.1;100.0
45864;BME280;31579;52.354;16.974;2023-05-23T00:58:18;-71.0;;;-146.1;100.0
45864;BME280;31579;52.354;16.974;2023-05-23T00:59:23;-78.9;;;-146.1;100.0
45864;BME280;31579;52.354;16.974;2023-05-23T01:00:26;-79.8;;;-146.1;100.0
45864;BME280;31579;52.354;16.974;2023-05-23T01:01:30;-79.9;;;-146.1;100.0
45864;BME280;31579;52.354;16.974;2023-05-23T01:02:35;-81.7;;;-146.1;100.0
45864;BME280;31579;52.354;16.974;2023-05-23T01:03:38;-81.2;;;-146.1;100.0
45864;BME280;31579;52.354;16.974;2023-05-23T01:04:42;-82.6;;;-146.1;100.0
45864;BME280;31579;52.354;16.974;2023-05-23T01:05:46;-83.8;;;-146.1;100.0
45864;BME280;31579;52.354;16.974;2023-05-23T01:06:53;-85.1;;;-146.1;100.0
45864;BME280;31579;52.354;16.974;2023-05-23T01:07:54;-86.6;;;-146.1;100.0
45864;BME280;31579;52.354;16.974;2023-05-23T01:08:58;-86.4;;;-146.1;100.0
45864;BME280;31579;52.354;16.974;2023-05-23T01:10:00;-93.6;;;-146.1;100.0
45864;BME280;31579;52.354;16.974;2023-05-23T01:11:05;-86.3;;;-146.1;100.0
45864;BME280;31579;52.354;16.974;2023-05-23T01:12:13;-85.4;;;-146.1;100.0
45864;BME280;31579;52.354;16.974;2023-05-23T01:14:21;-86.9;;;-146.1;100.0
45864;BME280;31579;52.354;16.974;2023-05-23T01:15:29;-89.1;;;-146.1;100.0
45864;BME280;31579;52.354;16.974;2023-05-23T01:16:34;-90.3;;;-146.1;100.0
45864;BME280;31579;52.354;16.974;2023-05-23T01:17:38;-91.3;;;-146.1;100.0
45864;BME280;31579;52.354;16.974;2023-05-23T01:18:39;-92.9;;;-146.1;100.0
45864;BME280;31579;52.354;16.974;2023-05-23T01:21:50;-93.6;;;-146.1;100.0
45864;BME280;31579;52.354;16.974;2023-05-23T01:22:59;-92.6;;;-146.1;100.0
45864;BME280;31579;52.354;16.974;2023-05-23T01:25:09;-91.4;;;-146.1;100.0
45864;BME280;31579;52.354;16.974;2023-05-23T01:27:22;-90.0;;;-146.1;100.0
45864;BME280;31579;52.354;16.974;2023-05-23T01:28:20;-93.4;;;-146.1;100.0
45864;BME280;31579;52.354;16.974;2023-05-23T01:29:27;-95.0;;;-146.1;100.0
45864;BME280;31579;52.354;16.974;2023-05-23T01:30:31;-95.2;;;-146.1;100.0
45864;BME280;31579;52.354;16.974;2023-05-23T01:31:33;-95.3;;;-146.1;100.0
45864;BME280;31579;52.354;16.974;2023-05-23T01:32:38;-96.1;;;-146.1;100.0
45864;BME280;31579;52.354;16.974;2023-05-23T01:33:41;-96.5;;;-146.1;100.0
45864;BME280;31579;52.354;16.974;2023-05-23T01:34:45;-96.4;;;-146.1;100.0
45864;BME280;31579;52.354;16.974;2023-05-23T01:35:50;-96.3;;;-146.1;100.0
45864;BME280;31579;52.354;16.974;2023-05-23T01:36:54;-97.1;;;-146.1;100.0
45864;BME280;31579;52.354;16.974;2023-05-23T01:37:58;-96.7;;;-146.1;100.0
45864;BME280;31579;52.354;16.974;2023-05-23T01:39:00;-102.2;;;-146.1;100.0
45864;BME280;31579;52.354;16.974;2023-05-23T01:40:06;-96.5;;;-146.1;100.0
45864;BME280;31579;52.354;16.974;2023-05-23T01:41:09;-97.2;;;-146.1;100.0
45864;BME280;31579;52.354;16.974;2023-05-23T01:42:13;-98.0;;;-146.1;100.0
45864;BME280;31579;52.354;16.974;2023-05-23T01:43:17;-97.5;;;-146.1;100.0
45864;BME280;31579;52.354;16.974;2023-05-23T01:44:21;-97.9;;;-146.1;100.0
45864;BME280;31579;52.354;16.974;2023-05-23T01:45:26;-99.2;;;-146.1;100.0
45864;BME280;31579;52.354;16.974;2023-05-23T01:46:29;-100.4;;;-146.1;100.0
45864;BME280;31579;52.354;16.974;2023-05-23T01:47:34;-100.9;;;-146.1;100.0
45864;BME280;31579;52.354;16.974;2023-05-23T01:48:37;-101.7;;;-146.1;100.0
45864;BME280;31579;52.354;16.974;2023-05-23T01:49:41;-103.1;;;-146.1;100.0
45864;BME280;31579;52.354;16.974;2023-05-23T01:50:45;-105.4;;;-146.1;100.0
45864;BME280;31579;52.354;16.974;2023-05-23T01:51:49;-106.3;;;-146.1;100.0
45864;BME280;31579;52.354;16.974;2023-05-23T01:52:54;-106.7;;;-146.1;100.0
45864;BME280;31579;52.354;16.974;2023-05-23T01:53:58;-107.1;;;-146.1;100.0
45864;BME280;31579;52.354;16.974;2023-05-23T01:55:01;-112.0;;;-146.1;100.0
45864;BME280;31579;52.354;16.974;2023-05-23T01:56:03;-110.0;;;-146.1;100.0
45864;BME280;31579;52.354;16.974;2023-05-23T01:57:08;-108.3;;;-146.1;100.0
45864;BME280;31579;52.354;16.974;2023-05-23T01:58:10;-110.9;;;-146.1;100.0
45864;BME280;31579;52.354;16.974;2023-05-23T01:59:12;-115.2;;;-146.1;100.0
45864;BME280;31579;52.354;16.974;2023-05-23T02:00:16;-111.5;;;-146.1;100.0
45864;BME280;31579;52.354;16.974;2023-05-23T02:01:20;-112.3;;;-146.1;100.0
45864;BME280;31579;52.354;16.974;2023-05-23T02:02:24;-112.7;;;-146.1;100.0
45864;BME280;31579;52.354;16.974;2023-05-23T02:03:28;-113.3;;;-146.1;100.0
45864;BME280;31579;52.354;16.974;2023-05-23T02:04:32;-114.3;;;-146.1;100.0
45864;BME280;31579;52.354;16.974;2023-05-23T02:05:36;-114.8;;;-146.1;100.0
45864;BME280;31579;52.354;16.974;2023-05-23T02:06:40;-116.4;;;-146.1;100.0
45864;BME280;31579;52.354;16.974;2023-05-23T02:07:44;-117.8;;;-146.1;100.0
45864;BME280;31579;52.354;16.974;2023-05-23T02:08:48;-118.9;;;-146.1;100.0
45864;BME280;31579;52.354;16.974;2023-05-23T02:09:53;-119.5;;;-146.1;100.0
45864;BME280;31579;52.354;16.974;2023-05-23T02:10:57;-120.1;;;-146.1;100.0
45864;BME280;31579;52.354;16.974;2023-05-23T02:12:01;-120.7;;;-146.1;100.0
45864;BME280;31579;52.354;16.974;2023-05-23T02:13:05;-120.7;;;-146.1;100.0
45864;BME280;31579;52.354;16.974;2023-05-23T02:14:10;-120.7;;;-146.1;100.0
45864;BME280;31579;52.354;16.974;2023-05-23T02:15:13;-122.7;;;-146.1;100.0
45864;BME280;31579;52.354;16.974;2023-05-23T02:16:17;-123.6;;;-146.1;100.0
45864;BME280;31579;52.354;16.974;2023-05-23T02:17:22;-124.5;;;-146.1;100.0
45864;BME280;31579;52.354;16.974;2023-05-23T02:18:26;-125.1;;;-146.1;100.0
45864;BME280;31579;52.354;16.974;2023-05-23T02:19:30;-124.7;;;-146.1;100.0
45864;BME280;31579;52.354;16.974;2023-05-23T02:20:35;-124.2;;;-146.1;100.0
45864;BME280;31579;52.354;16.974;2023-05-23T02:21:39;-124.1;;;-146.1;100.0
45864;BME280;31579;52.354;16.974;2023-05-23T02:22:43;-124.7;;;-146.1;100.0
45864;BME280;31579;52.354;16.974;2023-05-23T02:23:48;-125.8;;;-146.1;100.0
45864;BME280;31579;52.354;16.974;2023-05-23T02:24:52;-126.8;;;-146.1;100.0
45864;BME280;31579;52.354;16.974;2023-05-23T02:25:56;-128.3;;;-146.1;100.0
45864;BME280;31579;52.354;16.974;2023-05-23T02:27:00;-129.1;;;-146.1;100.0
45864;BME280;31579;52.354;16.974;2023-05-23T02:28:03;-131.0;;;-146.1;100.0
45864;BME280;31579;52.354;16.974;2023-05-23T02:29:07;-130.3;;;-146.1;100.0
45864;BME280;31579;52.354;16.974;2023-05-23T02:30:11;-131.5;;;-146.1;100.0
45864;BME280;31579;52.354;16.974;2023-05-23T02:31:15;-130.3;;;-146.1;100.0
45864;BME280;31579;52.354;16.974;2023-05-23T02:32:19;-129.8;;;-146.1;100.0
45864;BME280;31579;52.354;16.974;2023-05-23T02:33:23;-129.6;;;-146.1;100.0
45864;BME280;31579;52.354;16.974;2023-05-23T02:34:27;-129.2;;;-146.1;100.0
45864;BME280;31579;52.354;16.974;2023-05-23T02:35:31;-129.8;;;-146.1;100.0
45864;BME280;31579;52.354;16.974;2023-05-23T02:36:35;-130.2;;;-146.1;100.0
45864;BME280;31579;52.354;16.974;2023-05-23T02:37:39;-130.2;;;-146.1;100.0
45864;BME280;31579;52.354;16.974;2023-05-23T02:38:43;-130.0;;;-146.1;100.0
45864;BME280;31579;52.354;16.974;2023-05-23T02:39:47;-130.0;;;-146.1;100.0
45864;BME280;31579;52.354;16.974;2023-05-23T02:40:51;-130.4;;;-146.1;100.0
45864;BME280;31579;52.354;16.974;2023-05-23T02:41:56;-130.6;;;-146.1;100.0
45864;BME280;31579;52.354;16.974;2023-05-23T02:43:06;-130.6;;;-146.1;100.0
45864;BME280;31579;52.354;16.974;2023-05-23T02:44:10;-130.9;;;-146.1;100.0
45864;BME280;31579;52.354;16.974;2023-05-23T02:45:14;-131.7;;;-146.1;100.0
45864;BME280;31579;52.354;16.974;2023-05-23T02:46:18;-132.0;;;-146.1;100.0
45864;BME280;31579;52.354;16.974;2023-05-23T02:47:22;-132.5;;;-146.1;100.0
45864;BME280;31579;52.354;16.974;2023-05-23T02:48:26;-133.0;;;-146.1;100.0
45864;BME280;31579;52.354;16.974;2023-05-23T02:49:31;-134.0;;;-146.1;100.0
45864;BME280;31579;52.354;16.974;2023-05-23T02:50:35;-134.0;;;-146.1;100.0
45864;BME280;31579;52.354;16.974;2023-05-23T02:51:39;-134.1;;;-146.1;100.0
45864;BME280;31579;52.354;16.974;2023-05-23T02:52:43;-133.9;;;-146.1;100.0
45864;BME280;31579;52.354;16.974;2023-05-23T02:53:47;-133.7;;;-146.1;100.0
45864;BME280;31579;52.354;16.974;2023-05-23T02:54:51;-134.3;;;-146.1;100.0
45864;BME280;31579;52.354;16.974;2023-05-23T02:55:55;-134.6;;;-146.1;100.0
45864;BME280;31579;52.354;16.974;2023-05-23T02:56:59;-134.9;;;-146.1;100.0
45864;BME280;31579;52.354;16.974;2023-05-23T02:58:03;-136.6;;;-146.1;100.0
45864;BME280;31579;52.354;16.974;2023-05-23T02:59:07;-136.1;;;-146.1;100.0
45864;BME280;31579;52.354;16.974;2023-05-23T03:00:12;-136.2;;;-146.1;100.0
45864;BME280;31579;52.354;16.974;2023-05-23T03:01:15;-136.3;;;-146.1;100.0
45864;BME280;31579;52.354;16.974;2023-05-23T03:02:19;-136.9;;;-146.1;100.0
45864;BME280;31579;52.354;16.974;2023-05-23T03:03:23;-136.9;;;-146.1;100.0
45864;BME280;31579;52.354;16.974;2023-05-23T03:04:27;-137.3;;;-146.1;100.0
45864;BME280;31579;52.354;16.974;2023-05-23T03:05:31;-137.5;;;-146.1;100.0
45864;BME280;31579;52.354;16.974;2023-05-23T03:06:35;-138.1;;;-146.1;100.0
45864;BME280;31579;52.354;16.974;2023-05-23T03:07:39;-138.0;;;-146.1;100.0
45864;BME280;31579;52.354;16.974;2023-05-23T03:08:43;-137.8;;;-146.1;100.0
45864;BME280;31579;52.354;16.974;2023-05-23T03:09:47;-137.7;;;-146.1;100.0
45864;BME280;31579;52.354;16.974;2023-05-23T03:10:52;-137.3;;;-146.1;100.0
45864;BME280;31579;52.354;16.974;2023-05-23T03:11:55;-137.4;;;-146.1;100.0
45864;BME280;31579;52.354;16.974;2023-05-23T03:13:00;-137.1;;;-146.1;100.0
45864;BME280;31579;52.354;16.974;2023-05-23T03:14:03;-138.5;;;-146.1;100.0
45864;BME280;31579;52.354;16.974;2023-05-23T03:15:05;-140.2;;;-146.1;100.0
45864;BME280;31579;52.354;16.974;2023-05-23T03:16:08;-137.5;;;-146.1;100.0
45864;BME280;31579;52.354;16.974;2023-05-23T03:17:12;-137.1;;;-146.1;100.0
45864;BME280;31579;52.354;16.974;2023-05-23T03:18:16;-137.1;;;-146.1;100.0
45864;BME280;31579;52.354;16.974;2023-05-23T03:19:20;-136.7;;;-146.1;100.0
45864;BME280;31579;52.354;16.974;2023-05-23T03:20:24;-134.9;;;-146.1;100.0
45864;BME280;31579;52.354;16.974;2023-05-23T03:21:29;-134.5;;;-146.1;100.0
45864;BME280;31579;52.354;16.974;2023-05-23T03:22:32;-134.8;;;-146.1;100.0
45864;BME280;31579;52.354;16.974;2023-05-23T03:23:36;-135.3;;;-146.1;100.0
45864;BME280;31579;52.354;16.974;2023-05-23T03:24:40;-135.7;;;-146.1;100.0
45864;BME280;31579;52.354;16.974;2023-05-23T03:25:44;-135.9;;;-146.1;100.0
45864;BME280;31579;52.354;16.974;2023-05-23T03:26:48;-136.3;;;-146.1;100.0
45864;BME280;31579;52.354;16.974;2023-05-23T03:27:52;-136.9;;;-146.1;100.0
45864;BME280;31579;52.354;16.974;2023-05-23T03:28:56;-137.4;;;-146.1;100.0
45864;BME280;31579;52.354;16.974;2023-05-23T03:30:07;-137.9;;;-146.1;100.0
45864;BME280;31579;52.354;16.974;2023-05-23T03:31:11;-137.9;;;-146.1;100.0
45864;BME280;31579;52.354;16.974;2023-05-23T03:32:15;-138.0;;;-146.1;100.0
45864;BME280;31579;52.354;16.974;2023-05-23T03:33:19;-138.4;;;-146.1;100.0
45864;BME280;31579;52.354;16.974;2023-05-23T03:34:23;-138.5;;;-146.1;100.0
45864;BME280;31579;52.354;16.974;2023-05-23T03:35:28;-138.5;;;-146.1;100.0
45864;BME280;31579;52.354;16.974;2023-05-23T03:36:32;-138.8;;;-146.1;100.0
45864;BME280;31579;52.354;16.974;2023-05-23T03:37:36;-138.7;;;-146.1;100.0
45864;BME280;31579;52.354;16.974;2023-05-23T03:38:40;-137.8;;;-146.1;100.0
45864;BME280;31579;52.354;16.974;2023-05-23T03:39:44;-137.7;;;-146.1;100.0
45864;BME280;31579;52.354;16.974;2023-05-23T03:40:49;-137.2;;;-146.1;100.0
45864;BME280;31579;52.354;16.974;2023-05-23T03:41:53;-137.2;;;-146.1;100.0
45864;BME280;31579;52.354;16.974;2023-05-23T03:44:01;-135.8;;;-146.1;100.0
45864;BME280;31579;52.354;16.974;2023-05-23T03:45:06;-135.3;;;-146.1;100.0
45864;BME280;31579;52.354;16.974;2023-05-23T03:46:11;-135.0;;;-146.1;100.0
45864;BME280;31579;52.354;16.974;2023-05-23T03:47:15;-135.8;;;-146.1;100.0
45864;BME280;31579;52.354;16.974;2023-05-23T03:48:19;-136.1;;;-146.1;100.0
45864;BME280;31579;52.354;16.974;2023-05-23T03:49:23;-135.8;;;-146.1;100.0
45864;BME280;31579;52.354;16.974;2023-05-23T03:50:27;-136.4;;;-146.1;100.0
45864;BME280;31579;52.354;16.974;2023-05-23T03:51:31;-136.5;;;-146.1;100.0
45864;BME280;31579;52.354;16.974;2023-05-23T03:52:35;-135.0;;;-146.1;100.0
45864;BME280;31579;52.354;16.974;2023-05-23T03:53:39;-134.8;;;-146.1;100.0
45864;BME280;31579;52.354;16.974;2023-05-23T03:54:43;-133.6;;;-146.1;100.0
45864;BME280;31579;52.354;16.974;2023-05-23T03:55:47;-134.2;;;-146.1;100.0
45864;BME280;31579;52.354;16.974;2023-05-23T03:56:51;-134.5;;;-146.1;100.0
45864;BME280;31579;52.354;16.974;2023-05-23T03:57:55;-134.6;;;-146.1;100.0
45864;BME280;31579;52.354;16.974;2023-05-23T03:58:59;-134.6;;;-146.1;100.0
45864;BME280;31579;52.354;16.974;2023-05-23T04:00:08;-133.9;;;-146.1;100.0
45864;BME280;31579;52.354;16.974;2023-05-23T04:01:10;-136.5;;;-146.1;100.0
45864;BME280;31579;52.354;16.974;2023-05-23T04:02:15;-135.0;;;-146.1;100.0
45864;BME280;31579;52.354;16.974;2023-05-23T04:03:20;-134.7;;;-146.1;100.0
45864;BME280;31579;52.354;16.974;2023-05-23T04:04:24;-133.5;;;-146.1;100.0
45864;BME280;31579;52.354;16.974;2023-05-23T04:05:29;-132.6;;;-146.1;100.0
45864;BME280;31579;52.354;16.974;2023-05-23T04:06:34;-130.8;;;-146.1;100.0
45864;BME280;31579;52.354;16.974;2023-05-23T04:07:38;-130.7;;;-146.1;100.0
45864;BME280;31579;52.354;16.974;2023-05-23T04:08:42;-130.4;;;-146.1;100.0
45864;BME280;31579;52.354;16.974;2023-05-23T04:09:46;-130.1;;;-146.1;100.0
45864;BME280;31579;52.354;16.974;2023-05-23T04:10:50;-129.0;;;-146.1;100.0
45864;BME280;31579;52.354;16.974;2023-05-23T04:11:54;-129.6;;;-146.1;100.0
45864;BME280;31579;52.354;16.974;2023-05-23T04:12:58;-129.7;;;-146.1;100.0
45864;BME280;31579;52.354;16.974;2023-05-23T04:14:02;-128.5;;;-146.1;100.0
45864;BME280;31579;52.354;16.974;2023-05-23T04:15:06;-125.7;;;-146.1;100.0
45864;BME280;31579;52.354;16.974;2023-05-23T04:16:10;-126.0;;;-146.1;100.0
45864;BME280;31579;52.354;16.974;2023-05-23T04:17:14;-124.0;;;-146.1;100.0
45864;BME280;31579;52.354;16.974;2023-05-23T04:18:18;-123.6;;;-146.1;100.0
45864;BME280;31579;52.354;16.974;2023-05-23T04:19:22;-123.4;;;-146.1;100.0
45864;BME280;31579;52.354;16.974;2023-05-23T04:20:26;-122.2;;;-146.1;100.0
45864;BME280;31579;52.354;16.974;2023-05-23T04:21:30;-120.5;;;-146.1;100.0
45864;BME280;31579;52.354;16.974;2023-05-23T04:22:34;-118.5;;;-146.1;100.0
45864;BME280;31579;52.354;16.974;2023-05-23T04:23:38;-115.4;;;-146.1;100.0
45864;BME280;31579;52.354;16.974;2023-05-23T04:24:42;-114.0;;;-146.1;100.0
45864;BME280;31579;52.354;16.974;2023-05-23T04:25:46;-111.6;;;-146.1;100.0
45864;BME280;31579;52.354;16.974;2023-05-23T04:26:50;-110.5;;;-146.1;100.0
45864;BME280;31579;52.354;16.974;2023-05-23T04:27:54;-106.9;;;-146.1;100.0
45864;BME280;31579;52.354;16.974;2023-05-23T04:28:58;-105.7;;;-146.1;100.0
45864;BME280;31579;52.354;16.974;2023-05-23T04:30:02;-102.3;;;-146.1;100.0
45864;BME280;31579;52.354;16.974;2023-05-23T04:31:06;-97.1;;;-146.1;100.0
45864;BME280;31579;52.354;16.974;2023-05-23T04:32:10;-95.0;;;-146.1;100.0
45864;BME280;31579;52.354;16.974;2023-05-23T04:33:14;-91.0;;;-146.1;100.0
45864;BME280;31579;52.354;16.974;2023-05-23T04:34:18;-84.2;;;-146.1;100.0
45864;BME280;31579;52.354;16.974;2023-05-23T04:35:22;-83.4;;;-146.1;100.0
45864;BME280;31579;52.354;16.974;2023-05-23T04:36:26;-82.1;;;-146.1;100.0
45864;BME280;31579;52.354;16.974;2023-05-23T04:37:30;-75.4;;;-146.1;100.0
45864;BME280;31579;52.354;16.974;2023-05-23T04:38:34;-67.6;;;-146.1;100.0
45864;BME280;31579;52.354;16.974;2023-05-23T04:39:38;-61.0;;;-146.1;100.0
45864;BME280;31579;52.354;16.974;2023-05-23T04:40:42;-59.3;;;-146.1;100.0
45864;BME280;31579;52.354;16.974;2023-05-23T04:41:46;-44.3;;;-146.1;100.0
45864;BME280;31579;52.354;16.974;2023-05-23T04:42:50;-28.7;;;-146.1;100.0
45864;BME280;31579;52.354;16.974;2023-05-23T04:43:54;-18.5;;;-146.1;100.0
45864;BME280;31579;52.354;16.974;2023-05-23T04:44:58;1.3;;;-146.1;100.0
45864;BME280;31579;52.354;16.974;2023-05-23T04:46:02;6.9;;;-146.1;100.0
45864;BME280;31579;52.354;16.974;2023-05-23T04:47:06;10.9;;;-146.1;100.0
45864;BME280;31579;52.354;16.974;2023-05-23T04:48:10;27.8;;;-146.1;100.0
45864;BME280;31579;52.354;16.974;2023-05-23T04:49:14;58.0;;;-146.1;100.0
45864;BME280;31579;52.354;16.974;2023-05-23T04:50:18;84.8;;;-146.1;100.0
45864;BME280;31579;52.354;16.974;2023-05-23T04:51:22;77.4;;;-146.1;100.0
45864;BME280;31579;52.354;16.974;2023-05-23T04:52:26;100.5;;;-146.1;100.0
45864;BME280;31579;52.354;16.974;2023-05-23T04:53:30;96.8;;;-146.1;100.0
45864;BME280;31579;52.354;16.974;2023-05-23T04:54:34;118.9;;;-146.1;100.0
45864;BME280;31579;52.354;16.974;2023-05-23T04:55:38;187.7;;;-146.1;100.0
45864;BME280;31579;52.354;16.974;2023-05-23T04:56:42;248.7;;;-146.1;100.0
45864;BME280;31579;52.354;16.974;2023-05-23T04:57:46;338.7;;;-146.1;100.0
45864;BME280;31579;52.354;16.974;2023-05-23T04:58:50;346.3;;;-146.1;100.0
45864;BME280;31579;52.354;16.974;2023-05-23T04:59:54;404.8;;;-146.1;100.0
45864;BME280;31579;52.354;16.974;2023-05-23T05:00:58;460.4;;;-146.1;100.0
45864;BME280;31579;52.354;16.974;2023-05-23T05:02:09;505.8;;;-146.1;100.0
45864;BME280;31579;52.354;16.974;2023-05-23T05:03:13;567.7;;;-146.1;100.0
45864;BME280;31579;52.354;16.974;2023-05-23T05:04:17;689.0;;;-146.1;100.0
45864;BME280;31579;52.354;16.974;2023-05-23T05:05:21;665.1;;;-146.1;100.0
45864;BME280;31579;52.354;16.974;2023-05-23T05:06:25;635.0;;;-146.1;100.0
45864;BME280;31579;52.354;16.974;2023-05-23T05:07:29;575.0;;;-146.1;100.0
45864;BME280;31579;52.354;16.974;2023-05-23T05:08:33;494.7;;;-146.1;100.0
45864;BME280;31579;52.354;16.974;2023-05-23T05:09:37;444.3;;;-146.1;100.0
45864;BME280;31579;52.354;16.974;2023-05-23T05:10:42;619.9;;;-146.1;100.0
45864;BME280;31579;52.354;16.974;2023-05-23T05:11:46;634.4;;;-146.1;100.0
45864;BME280;31579;52.354;16.974;2023-05-23T05:12:50;639.8;;;-146.1;100.0
45864;BME280;31579;52.354;16.974;2023-05-23T05:13:54;641.9;;;-146.1;100.0
45864;BME280;31579;52.354;16.974;2023-05-23T05:14:59;639.6;;;-146.1;100.0
45864;BME280;31579;52.354;16.974;2023-05-23T05:16:03;687.5;;;-146.1;100.0
45864;BME280;31579;52.354;16.974;2023-05-23T05:17:05;551.5;;;-146.1;100.0
45864;BME280;31579;52.354;16.974;2023-05-23T05:18:10;620.8;;;-146.1;100.0
45864;BME280;31579;52.354;16.974;2023-05-23T05:19:14;608.4;;;-146.1;100.0
45864;BME280;31579;52.354;16.974;2023-05-23T05:20:18;670.3;;;-146.1;100.0
45864;BME280;31579;52.354;16.974;2023-05-23T05:21:22;739.7;;;-146.1;100.0
45864;BME280;31579;52.354;16.974;2023-05-23T05:22:27;714.6;;;-146.1;100.0
45864;BME280;31579;52.354;16.974;2023-05-23T05:23:31;679.0;;;-146.1;100.0
45864;BME280;31579;52.354;16.974;2023-05-23T05:24:35;729.9;;;-146.1;100.0
45864;BME280;31579;52.354;16.974;2023-05-23T05:25:39;681.9;;;-146.1;100.0
45864;BME280;31579;52.354;16.974;2023-05-23T05:26:43;668.6;;;-146.1;100.0
45864;BME280;31579;52.354;16.974;2023-05-23T05:27:47;730.0;;;-146.1;100.0
45864;BME280;31579;52.354;16.974;2023-05-23T05:28:51;679.7;;;-146.1;100.0
45864;BME280;31579;52.354;16.974;2023-05-23T05:29:55;759.0;;;-146.1;100.0
45864;BME280;31579;52.354;16.974;2023-05-23T05:30:59;725.7;;;-146.1;100.0
45864;BME280;31579;52.354;16.974;2023-05-23T05:32:03;672.6;;;-146.1;100.0
45864;BME280;31579;52.354;16.974;2023-05-23T05:33:07;598.2;;;-146.1;100.0
45864;BME280;31579;52.354;16.974;2023-05-23T05:34:11;590.5;;;-146.1;100.0
45864;BME280;31579;52.354;16.974;2023-05-23T05:35:15;628.3;;;-146.1;100.0
45864;BME280;31579;52.354;16.974;2023-05-23T05:36:19;609.6;;;-146.1;100.0
45864;BME280;31579;52.354;16.974;2023-05-23T05:37:23;639.9;;;-146.1;100.0
45864;BME280;31579;52.354;16.974;2023-05-23T05:38:27;676.3;;;-146.1;100.0
45864;BME280;31579;52.354;16.974;2023-05-23T05:39:31;650.7;;;-146.1;100.0
45864;BME280;31579;52.354;16.974;2023-05-23T05:40:35;637.0;;;-146.1;100.0
45864;BME280;31579;52.354;16.974;2023-05-23T05:41:39;685.6;;;-146.1;100.0
45864;BME280;31579;52.354;16.974;2023-05-23T05:42:43;652.4;;;-146.1;100.0
45864;BME280;31579;52.354;16.974;2023-05-23T05:43:47;514.9;;;-146.1;100.0
45864;BME280;31579;52.354;16.974;2023-05-23T05:44:51;734.7;;;-146.1;100.0
45864;BME280;31579;52.354;16.974;2023-05-23T05:45:55;813.5;;;-146.1;100.0
45864;BME280;31579;52.354;16.974;2023-05-23T05:46:59;859.0;;;-146.1;100.0
45864;BME280;31579;52.354;16.974;2023-05-23T05:48:03;904.0;;;-146.1;100.0